Pagrindinis puslapis
METAR-TAF:

METAR-TAF

Oro uostai :

Jämsä, Suomija

platuma: 61-51N, ilguma: 024-48E, Aukštis: 143 m

Dabartinis oras

Ataskaita buvo paskelbta 16 minutes, ne 09:20 UTC
Vėjas 7 kt iš Rytų/Šiaurės Rytų
Temperatūra -5°C
Drėgmė 93%
Slėgis 1008 hPa
Matomumas: 7000 m
Apsiniaukę ne aukštis 900 ft
sniegas

METAR: EFHA 100920Z AUTO 06007KT 7000 -SN OVC009 M05/M06 Q1008

Laikas: 11:36 (09:36 UTC)

Prognozė

Ataskaita buvo paskelbta 20 valandos ir 42 minutes, ne 12:54 UTC
Prognozė galioja nuo 09 metu 12 UTC su 09 metu 15 UTC
Vėjas 4 kt iš Pietų/Pietryčių
Matomumas 10 km arba daugiau
Apsiniaukę ne aukštis 500 ft
Laikinai
nuo 09 metu 12 UTC su 09 metu 15 UTC
Matomumas: 6000 m
Su prošvaistėmis ne aukštis 300 ft

TAF: EFHA 091254Z 0912/0915 15004KT 9999 OVC005 TEMPO 0912/0915 6000 BKN003

Orai ataskaitas ir orų prognozės (METAR, TAF).

turimą stotys yra geltonos ir raudonos taškus žemėlapyje.

Perkelti pele per norėdami pamatyti stoties vardą.

Tada spustelėkite, norėdami matyti oro stebėjimo ir prognozės.

Norėdami pakeisti žemėlapį: spustelėkite ant žalios mygtukų su juodo kryžiaus žemyn,; žalią mygtuką su brūkšneliu, jei norite nutolinti; arba žalių rodyklių gretimoms žemėlapius.


METAR-TAF: